createdAt,value
2017-09-10T00:01:28.092Z,13.53
2017-09-10T00:03:55.478Z,13.47
2017-09-10T00:06:23.053Z,13.42
2017-09-10T00:08:50.473Z,13.36
2017-09-10T00:11:17.848Z,13.32
2017-09-10T00:13:45.278Z,13.27
2017-09-10T00:16:12.671Z,13.26
2017-09-10T00:18:40.073Z,13.19
2017-09-10T00:21:07.494Z,13.17
2017-09-10T00:23:34.904Z,13.16
2017-09-10T00:26:02.295Z,13.12
2017-09-10T00:28:29.819Z,13.09
2017-09-10T00:30:57.220Z,13.05
2017-09-10T00:33:24.612Z,13.03
2017-09-10T00:35:52.135Z,13.00
2017-09-10T00:38:19.540Z,12.96
2017-09-10T00:40:46.960Z,12.94
2017-09-10T00:43:14.358Z,12.95
2017-09-10T00:45:41.750Z,12.92
2017-09-10T00:48:09.147Z,12.94
2017-09-10T00:50:36.698Z,12.93
2017-09-10T00:53:04.090Z,12.91
2017-09-10T00:55:31.492Z,12.89
2017-09-10T00:57:59.053Z,12.86
2017-09-10T01:00:26.439Z,12.84
2017-09-10T01:02:53.830Z,12.82
2017-09-10T01:05:21.402Z,12.80
2017-09-10T01:07:48.815Z,12.79
2017-09-10T01:10:17.106Z,12.78
2017-09-10T01:12:44.502Z,12.80
2017-09-10T01:15:11.922Z,12.78
2017-09-10T01:17:39.307Z,12.74
2017-09-10T01:20:06.849Z,12.71
2017-09-10T01:22:34.247Z,12.67
2017-09-10T01:25:01.664Z,12.61
2017-09-10T01:27:29.216Z,12.64
2017-09-10T01:29:56.606Z,12.61
2017-09-10T01:32:24.015Z,12.62
2017-09-10T01:34:51.433Z,12.54
2017-09-10T01:37:18.827Z,12.55
2017-09-10T01:39:46.224Z,12.59
2017-09-10T01:42:14.101Z,12.51
2017-09-10T01:44:41.475Z,12.59
2017-09-10T01:47:08.877Z,12.63
2017-09-10T01:49:36.392Z,12.61
2017-09-10T01:52:03.782Z,12.61
2017-09-10T01:54:31.172Z,12.60
2017-09-10T01:56:58.711Z,12.61
2017-09-10T01:59:26.126Z,12.59
2017-09-10T02:01:53.518Z,12.55
2017-09-10T02:04:21.045Z,12.52
2017-09-10T02:06:48.478Z,12.50
2017-09-10T02:09:16.669Z,12.49
2017-09-10T02:11:44.115Z,12.51
2017-09-10T02:14:11.507Z,12.50
2017-09-10T02:16:38.903Z,12.52
2017-09-10T02:19:06.463Z,12.52
2017-09-10T02:21:33.852Z,12.52
2017-09-10T02:24:01.243Z,12.50
2017-09-10T02:26:28.773Z,12.48
2017-09-10T02:28:56.423Z,12.46
2017-09-10T02:31:23.814Z,12.43
2017-09-10T02:33:52.156Z,12.48
2017-09-10T02:36:19.547Z,12.48
2017-09-10T02:38:46.942Z,12.43
2017-09-10T02:41:14.494Z,12.41
2017-09-10T02:43:41.879Z,12.40
2017-09-10T02:46:09.270Z,12.38
2017-09-10T02:48:36.672Z,12.36
2017-09-10T02:51:04.063Z,12.35
2017-09-10T02:53:31.480Z,12.33
2017-09-10T02:55:58.901Z,12.30
2017-09-10T02:58:26.294Z,12.29
2017-09-10T03:00:53.694Z,12.29
2017-09-10T03:03:21.223Z,12.26
2017-09-10T03:05:48.610Z,12.24
2017-09-10T03:08:16.026Z,12.21
2017-09-10T03:10:43.583Z,12.18
2017-09-10T03:13:10.977Z,12.17
2017-09-10T03:15:38.363Z,12.19
2017-09-10T03:18:05.916Z,12.18
2017-09-10T03:20:33.306Z,12.17
2017-09-10T03:23:01.146Z,12.17
2017-09-10T03:25:28.695Z,12.20
2017-09-10T03:27:56.082Z,12.26
2017-09-10T03:30:23.475Z,12.28
2017-09-10T03:32:51.018Z,12.33
2017-09-10T03:35:18.410Z,12.35
2017-09-10T03:37:45.797Z,12.37
2017-09-10T03:40:13.351Z,12.41
2017-09-10T03:42:40.758Z,12.43
2017-09-10T03:45:08.159Z,12.38
2017-09-10T03:47:35.699Z,12.37
2017-09-10T03:50:03.094Z,12.31
2017-09-10T03:52:30.482Z,12.26
2017-09-10T03:54:57.992Z,12.23
2017-09-10T03:57:25.385Z,12.16
2017-09-10T03:59:52.774Z,12.14
2017-09-10T04:02:20.179Z,12.11
2017-09-10T04:04:47.572Z,12.11
2017-09-10T04:07:14.964Z,12.19
2017-09-10T04:09:42.367Z,12.25
2017-09-10T04:12:09.763Z,12.30
2017-09-10T04:14:37.155Z,12.30
2017-09-10T04:17:04.703Z,12.26
2017-09-10T04:19:32.098Z,12.22
2017-09-10T04:21:59.493Z,12.16
2017-09-10T04:24:26.994Z,12.11
2017-09-10T04:26:54.447Z,12.07
2017-09-10T04:29:21.838Z,12.08
2017-09-10T04:31:49.383Z,12.08
2017-09-10T04:34:16.778Z,12.06
2017-09-10T04:36:44.172Z,12.05
2017-09-10T04:39:11.586Z,12.03
2017-09-10T04:41:38.979Z,12.03
2017-09-10T04:44:06.372Z,12.01
2017-09-10T04:46:33.798Z,12.06
2017-09-10T04:49:01.200Z,12.06
2017-09-10T04:51:28.597Z,12.00
2017-09-10T04:53:56.099Z,12.03
2017-09-10T04:56:23.490Z,12.06
2017-09-10T04:58:50.887Z,12.00
2017-09-10T05:01:18.317Z,11.97
2017-09-10T05:03:45.714Z,11.98
2017-09-10T05:06:13.115Z,11.98
2017-09-10T05:08:40.620Z,11.99
2017-09-10T05:11:08.014Z,12.01
2017-09-10T05:13:35.407Z,12.00
2017-09-10T05:16:02.990Z,12.04
2017-09-10T05:18:30.396Z,12.05
2017-09-10T05:20:57.782Z,12.05
2017-09-10T05:23:25.291Z,12.10
2017-09-10T05:25:52.683Z,12.09
2017-09-10T05:28:20.074Z,12.10
2017-09-10T05:30:47.619Z,12.08
2017-09-10T05:33:15.008Z,12.10
2017-09-10T05:35:42.398Z,12.09
2017-09-10T05:38:09.951Z,12.15
2017-09-10T05:40:37.355Z,12.20
2017-09-10T05:43:04.743Z,12.20
2017-09-10T05:45:32.175Z,12.23
2017-09-10T05:47:59.566Z,12.21
2017-09-10T05:50:26.956Z,12.22
2017-09-10T05:52:54.463Z,12.22
2017-09-10T05:55:21.854Z,12.21
2017-09-10T05:57:49.246Z,12.20
2017-09-10T06:00:16.794Z,12.24
2017-09-10T06:02:44.190Z,12.34
2017-09-10T06:05:11.578Z,12.46
2017-09-10T06:07:39.111Z,12.50
2017-09-10T06:10:06.498Z,12.62
2017-09-10T06:12:33.891Z,12.69
2017-09-10T06:15:01.391Z,12.72
2017-09-10T06:17:28.833Z,12.77
2017-09-10T06:19:56.222Z,12.79
2017-09-10T06:22:23.627Z,12.80
2017-09-10T06:24:51.015Z,12.79
2017-09-10T06:27:18.418Z,12.82
2017-09-10T06:29:45.922Z,12.81
2017-09-10T06:32:13.311Z,12.78
2017-09-10T06:34:40.695Z,12.81
2017-09-10T06:37:08.243Z,12.81
2017-09-10T06:39:35.642Z,12.84
2017-09-10T06:42:03.034Z,12.84
2017-09-10T06:44:30.458Z,12.85
2017-09-10T06:46:57.846Z,12.92
2017-09-10T06:49:25.243Z,12.91
2017-09-10T06:51:53.038Z,12.97
2017-09-10T06:54:20.402Z,13.00
2017-09-10T06:56:47.811Z,13.05
2017-09-10T06:59:15.226Z,13.03
2017-09-10T07:01:42.614Z,13.06
2017-09-10T07:04:10.015Z,13.12
2017-09-10T07:06:37.415Z,13.16
2017-09-10T07:09:04.810Z,13.19
2017-09-10T07:11:32.361Z,13.26
2017-09-10T07:13:59.747Z,13.29
2017-09-10T07:16:27.138Z,13.35
2017-09-10T07:18:54.559Z,13.39
2017-09-10T07:21:22.548Z,13.41
2017-09-10T07:23:49.933Z,13.46
2017-09-10T07:26:17.346Z,13.52
2017-09-10T07:28:44.748Z,13.59
2017-09-10T07:31:12.176Z,13.63
2017-09-10T07:33:39.562Z,13.73
2017-09-10T07:36:06.971Z,13.77
2017-09-10T07:38:34.657Z,13.84
2017-09-10T07:41:02.051Z,13.91
2017-09-10T07:43:29.483Z,13.99
2017-09-10T07:45:56.874Z,14.06
2017-09-10T07:48:24.450Z,14.09
2017-09-10T07:50:51.846Z,14.14
2017-09-10T07:53:19.463Z,14.20
2017-09-10T07:55:46.870Z,14.28
2017-09-10T07:58:14.250Z,14.32
2017-09-10T08:00:42.179Z,14.38
2017-09-10T08:03:09.579Z,14.42
2017-09-10T08:05:36.967Z,14.52
2017-09-10T08:08:04.366Z,14.58
2017-09-10T08:10:31.757Z,14.59
2017-09-10T08:12:59.211Z,14.69
2017-09-10T08:15:26.603Z,14.76
2017-09-10T08:17:53.986Z,14.82
2017-09-10T08:20:21.544Z,14.89
2017-09-10T08:22:48.930Z,14.99
2017-09-10T08:25:16.343Z,15.05
2017-09-10T08:27:45.372Z,15.11
2017-09-10T08:30:13.112Z,15.25
2017-09-10T08:32:40.670Z,15.34
2017-09-10T08:35:08.206Z,15.46
2017-09-10T08:37:35.623Z,15.58
2017-09-10T08:40:03.019Z,15.72
2017-09-10T08:42:30.525Z,15.84
2017-09-10T08:44:57.903Z,16.01
2017-09-10T08:47:25.288Z,16.19
2017-09-10T08:49:52.673Z,16.34
2017-09-10T08:52:20.075Z,16.45
2017-09-10T08:54:47.614Z,16.67
2017-09-10T08:57:15.010Z,16.89
2017-09-10T08:59:42.395Z,17.11
2017-09-10T09:02:09.902Z,17.25
2017-09-10T09:04:37.274Z,17.41
2017-09-10T09:07:04.808Z,17.56
2017-09-10T09:09:32.193Z,17.68
2017-09-10T09:11:59.583Z,17.83
2017-09-10T09:14:26.982Z,18.02
2017-09-10T09:16:54.383Z,18.17
2017-09-10T09:19:21.786Z,18.38
2017-09-10T09:21:49.163Z,18.58
2017-09-10T09:24:16.584Z,18.88
2017-09-10T09:26:43.963Z,19.16
2017-09-10T09:29:11.347Z,19.36
2017-09-10T09:31:39.796Z,19.38
2017-09-10T09:34:07.196Z,19.33
2017-09-10T09:36:34.579Z,19.71
2017-09-10T09:39:04.063Z,20.17
2017-09-10T09:41:31.453Z,20.44
2017-09-10T09:43:58.849Z,20.79
2017-09-10T09:46:26.240Z,21.18
2017-09-10T09:48:53.627Z,21.20
2017-09-10T09:51:21.170Z,21.01
2017-09-10T09:53:48.552Z,20.74
2017-09-10T09:56:15.954Z,20.28
2017-09-10T09:58:43.351Z,19.60
2017-09-10T10:01:10.741Z,19.65
2017-09-10T10:03:38.146Z,19.70
2017-09-10T10:06:05.538Z,19.69
2017-09-10T10:08:32.937Z,19.96
2017-09-10T10:11:00.323Z,20.03
2017-09-10T10:13:27.840Z,20.05
2017-09-10T10:15:55.235Z,20.35
2017-09-10T10:18:22.609Z,21.02
2017-09-10T10:20:50.034Z,21.62
2017-09-10T10:23:17.430Z,22.01
2017-09-10T10:25:44.813Z,21.57
2017-09-10T10:28:13.059Z,20.63
2017-09-10T10:30:40.464Z,20.49
2017-09-10T10:33:07.854Z,20.02
2017-09-10T10:35:35.244Z,20.29
2017-09-10T10:38:02.784Z,20.42
2017-09-10T10:40:30.170Z,20.30
2017-09-10T10:42:57.556Z,21.17
2017-09-10T10:45:24.962Z,21.39
2017-09-10T10:47:52.388Z,21.12
2017-09-10T10:50:19.778Z,21.29
2017-09-10T10:52:47.158Z,21.87
2017-09-10T10:55:14.539Z,22.28
2017-09-10T10:57:41.931Z,22.65
2017-09-10T11:00:09.319Z,21.92
2017-09-10T11:02:36.706Z,21.44
2017-09-10T11:05:04.094Z,21.39
2017-09-10T11:07:31.475Z,21.70
2017-09-10T11:09:58.867Z,21.46
2017-09-10T11:12:26.246Z,20.63
2017-09-10T11:14:53.740Z,20.33
2017-09-10T11:17:21.129Z,19.88
2017-09-10T11:19:48.518Z,19.37
2017-09-10T11:22:15.926Z,19.26
2017-09-10T11:24:43.307Z,19.74
2017-09-10T11:27:11.150Z,20.25
2017-09-10T11:29:38.538Z,20.65
2017-09-10T11:32:05.924Z,21.30
2017-09-10T11:34:33.313Z,21.47
2017-09-10T11:37:00.696Z,21.65
2017-09-10T11:39:28.082Z,22.10
2017-09-10T11:41:55.476Z,22.75
2017-09-10T11:44:23.008Z,22.74
2017-09-10T11:46:50.398Z,22.49
2017-09-10T11:49:17.778Z,22.33
2017-09-10T11:51:45.166Z,21.19
2017-09-10T11:54:12.569Z,20.42
2017-09-10T11:56:39.964Z,19.95
2017-09-10T11:59:07.349Z,20.32
2017-09-10T12:01:34.738Z,20.51
2017-09-10T12:04:02.126Z,20.25
2017-09-10T12:06:29.523Z,19.84
2017-09-10T12:08:56.912Z,19.57
2017-09-10T12:11:24.771Z,19.53
2017-09-10T12:13:52.154Z,19.42
2017-09-10T12:16:19.538Z,19.26
2017-09-10T12:18:47.011Z,19.22
2017-09-10T12:21:14.402Z,19.52
2017-09-10T12:23:41.903Z,19.39
2017-09-10T12:26:09.284Z,19.49
2017-09-10T12:28:36.666Z,19.66
2017-09-10T12:31:04.055Z,19.93
2017-09-10T12:33:31.445Z,20.64
2017-09-10T12:35:58.869Z,21.11
2017-09-10T12:38:26.252Z,20.90
2017-09-10T12:40:53.635Z,21.15
2017-09-10T12:43:21.034Z,21.51
2017-09-10T12:45:48.415Z,21.77
2017-09-10T12:48:15.906Z,22.03
2017-09-10T12:50:43.302Z,21.87
2017-09-10T12:53:10.686Z,21.58
2017-09-10T12:55:38.074Z,21.33
2017-09-10T12:58:05.455Z,20.82
2017-09-10T13:00:32.991Z,20.66
2017-09-10T13:03:00.372Z,20.48
2017-09-10T13:05:27.751Z,20.37
2017-09-10T13:07:55.138Z,20.48
2017-09-10T13:10:22.518Z,20.55
2017-09-10T13:12:49.922Z,20.75
2017-09-10T13:15:17.307Z,20.94
2017-09-10T13:17:44.705Z,20.74
2017-09-10T13:20:12.098Z,20.85
2017-09-10T13:22:39.639Z,20.81
2017-09-10T13:25:07.039Z,20.78
2017-09-10T13:27:34.415Z,20.62
2017-09-10T13:30:01.816Z,20.69
2017-09-10T13:32:29.194Z,20.88
2017-09-10T13:34:56.600Z,20.85
2017-09-10T13:37:23.979Z,20.84
2017-09-10T13:39:51.371Z,21.17
2017-09-10T13:42:18.765Z,21.39
2017-09-10T13:44:46.142Z,21.65
2017-09-10T13:47:13.686Z,22.00
2017-09-10T13:49:41.072Z,22.07
2017-09-10T13:52:08.469Z,21.82
2017-09-10T13:54:35.858Z,21.83
2017-09-10T13:57:03.239Z,21.95
2017-09-10T13:59:30.774Z,22.12
2017-09-10T14:01:58.162Z,22.14
2017-09-10T14:04:25.558Z,21.96
2017-09-10T14:06:52.950Z,21.41
2017-09-10T14:09:20.339Z,21.14
2017-09-10T14:11:47.726Z,20.80
2017-09-10T14:14:15.130Z,20.59
2017-09-10T14:16:42.518Z,20.57
2017-09-10T14:19:09.906Z,20.42
2017-09-10T14:21:37.291Z,20.35
2017-09-10T14:24:04.833Z,20.30
2017-09-10T14:26:32.224Z,20.36
2017-09-10T14:28:59.594Z,20.54
2017-09-10T14:31:26.986Z,20.48
2017-09-10T14:33:54.378Z,20.62
2017-09-10T14:36:21.767Z,20.80
2017-09-10T14:38:49.150Z,20.78
2017-09-10T14:41:16.547Z,20.82
2017-09-10T14:43:43.943Z,20.79
2017-09-10T14:46:11.326Z,20.65
2017-09-10T14:48:38.722Z,20.61
2017-09-10T14:51:06.106Z,20.44
2017-09-10T14:53:33.495Z,20.51
2017-09-10T14:56:00.895Z,20.58
2017-09-10T14:58:28.278Z,20.47
2017-09-10T15:00:55.787Z,20.43
2017-09-10T15:03:23.170Z,20.20
2017-09-10T15:05:50.558Z,20.06
2017-09-10T15:08:17.951Z,20.04
2017-09-10T15:10:45.373Z,20.22
2017-09-10T15:13:13.771Z,20.47
2017-09-10T15:15:41.155Z,20.52
2017-09-10T15:18:08.550Z,20.69
2017-09-10T15:20:35.947Z,20.20
2017-09-10T15:23:03.328Z,20.26
2017-09-10T15:25:30.870Z,20.28
2017-09-10T15:27:58.252Z,20.43
2017-09-10T15:30:25.641Z,20.34
2017-09-10T15:32:53.032Z,20.25
2017-09-10T15:35:20.443Z,20.38
2017-09-10T15:37:47.835Z,20.19
2017-09-10T15:40:15.262Z,19.80
2017-09-10T15:42:42.639Z,19.70
2017-09-10T15:45:10.026Z,19.55
2017-09-10T15:47:37.415Z,19.39
2017-09-10T15:50:05.071Z,19.40
2017-09-10T15:52:32.478Z,19.40
2017-09-10T15:54:59.926Z,19.54
2017-09-10T15:57:27.363Z,19.58
2017-09-10T15:59:54.764Z,19.25
2017-09-10T16:02:22.195Z,19.11
2017-09-10T16:04:49.585Z,19.04
2017-09-10T16:07:16.972Z,19.05
2017-09-10T16:09:44.378Z,18.94
2017-09-10T16:12:11.771Z,19.02
2017-09-10T16:14:39.266Z,18.90
2017-09-10T16:17:06.658Z,18.90
2017-09-10T16:19:34.070Z,18.93
2017-09-10T16:22:01.466Z,19.09
2017-09-10T16:24:28.870Z,19.01
2017-09-10T16:26:56.390Z,19.13
2017-09-10T16:29:23.765Z,19.07
2017-09-10T16:31:51.176Z,18.95
2017-09-10T16:34:18.584Z,18.88
2017-09-10T16:36:45.974Z,18.77
2017-09-10T16:39:13.539Z,18.73
2017-09-10T16:41:40.926Z,18.62
2017-09-10T16:44:08.350Z,18.59
2017-09-10T16:46:35.885Z,18.54
2017-09-10T16:49:03.320Z,18.56
2017-09-10T16:51:30.701Z,18.44
2017-09-10T16:53:58.089Z,18.51
2017-09-10T16:56:25.503Z,18.39
2017-09-10T16:58:52.899Z,18.22
2017-09-10T17:01:20.295Z,18.28
2017-09-10T17:03:47.687Z,18.21
2017-09-10T17:06:15.081Z,18.05
2017-09-10T17:08:42.491Z,18.19
2017-09-10T17:11:09.886Z,18.19
2017-09-10T17:13:37.282Z,18.22
2017-09-10T17:16:04.660Z,17.93
2017-09-10T17:18:32.044Z,17.96
2017-09-10T17:20:59.431Z,17.84
2017-09-10T17:23:26.926Z,17.74
2017-09-10T17:25:54.321Z,17.67
2017-09-10T17:28:21.698Z,17.67
2017-09-10T17:30:49.088Z,17.53
2017-09-10T17:33:16.483Z,17.46
2017-09-10T17:35:43.905Z,17.41
2017-09-10T17:38:11.326Z,17.34
2017-09-10T17:40:38.710Z,17.28
2017-09-10T17:43:06.102Z,17.18
2017-09-10T17:45:33.501Z,17.13
2017-09-10T17:48:00.874Z,17.02
2017-09-10T17:50:28.267Z,16.96
2017-09-10T17:52:55.678Z,16.87
2017-09-10T17:55:23.097Z,16.81
2017-09-10T17:57:52.256Z,16.81
2017-09-10T18:00:19.659Z,16.83
2017-09-10T18:02:47.045Z,16.80
2017-09-10T18:05:14.438Z,16.66
2017-09-10T18:07:42.029Z,16.69
2017-09-10T18:10:09.424Z,16.74
2017-09-10T18:12:36.841Z,16.70
2017-09-10T18:15:04.234Z,16.64
2017-09-10T18:17:31.627Z,16.62
2017-09-10T18:19:59.125Z,16.58
2017-09-10T18:22:26.504Z,16.56
2017-09-10T18:24:53.887Z,16.47
2017-09-10T18:27:21.288Z,16.45
2017-09-10T18:29:48.667Z,16.42
2017-09-10T18:32:16.075Z,16.31
2017-09-10T18:34:43.460Z,16.31
2017-09-10T18:37:10.843Z,16.27
2017-09-10T18:39:38.246Z,16.18
2017-09-10T18:42:05.655Z,16.08
2017-09-10T18:44:33.079Z,15.97
2017-09-10T18:47:00.470Z,15.92
2017-09-10T18:49:27.851Z,15.90
2017-09-10T18:51:55.249Z,15.88
2017-09-10T18:54:22.639Z,15.85
2017-09-10T18:56:50.176Z,15.81
2017-09-10T18:59:17.566Z,15.71
2017-09-10T19:01:44.941Z,15.67
2017-09-10T19:04:12.354Z,15.58
2017-09-10T19:06:39.745Z,15.50
2017-09-10T19:09:07.719Z,15.53
2017-09-10T19:11:35.113Z,15.50
2017-09-10T19:14:02.482Z,15.48
2017-09-10T19:16:29.878Z,15.49
2017-09-10T19:18:57.258Z,15.49
2017-09-10T19:21:24.654Z,15.46
2017-09-10T19:23:52.045Z,15.47
2017-09-10T19:26:19.435Z,15.41
2017-09-10T19:28:46.829Z,15.38
2017-09-10T19:31:14.214Z,15.35
2017-09-10T19:33:42.683Z,15.31
2017-09-10T19:36:10.071Z,15.25
2017-09-10T19:38:37.454Z,15.20
2017-09-10T19:41:04.852Z,15.19
2017-09-10T19:43:32.236Z,15.21
2017-09-10T19:45:59.649Z,15.24
2017-09-10T19:48:27.030Z,15.19
2017-09-10T19:50:54.420Z,15.20
2017-09-10T19:53:21.801Z,15.16
2017-09-10T19:55:49.187Z,15.14
2017-09-10T19:58:16.598Z,15.16
2017-09-10T20:00:44.902Z,15.11
2017-09-10T20:03:12.289Z,15.12
2017-09-10T20:05:39.676Z,15.13
2017-09-10T20:08:07.059Z,15.20
2017-09-10T20:10:34.454Z,15.29
2017-09-10T20:13:01.844Z,15.27
2017-09-10T20:15:29.226Z,15.33
2017-09-10T20:17:56.614Z,15.33
2017-09-10T20:20:24.012Z,15.40
2017-09-10T20:22:51.571Z,15.38
2017-09-10T20:25:18.940Z,15.39
2017-09-10T20:27:46.327Z,15.40
2017-09-10T20:30:13.718Z,15.39
2017-09-10T20:32:41.134Z,15.42
2017-09-10T20:35:08.525Z,15.42
2017-09-10T20:37:35.911Z,15.44
2017-09-10T20:40:03.294Z,15.46
2017-09-10T20:42:30.687Z,15.46
2017-09-10T20:44:58.077Z,15.43
2017-09-10T20:47:25.479Z,15.45
2017-09-10T20:49:52.866Z,15.43
2017-09-10T20:52:20.248Z,15.43
2017-09-10T20:54:47.643Z,15.37
2017-09-10T20:57:15.022Z,15.41
2017-09-10T20:59:42.519Z,15.38
2017-09-10T21:02:09.903Z,15.31
2017-09-10T21:04:37.283Z,15.31
2017-09-10T21:07:04.674Z,15.31
2017-09-10T21:09:32.059Z,15.27
2017-09-10T21:11:59.470Z,15.31
2017-09-10T21:14:26.868Z,15.30
2017-09-10T21:16:54.252Z,15.26
2017-09-10T21:19:21.646Z,15.26
2017-09-10T21:21:49.027Z,15.25
2017-09-10T21:24:16.420Z,15.26
2017-09-10T21:26:43.806Z,15.30
2017-09-10T21:29:11.197Z,15.31
2017-09-10T21:31:38.581Z,15.29
2017-09-10T21:34:05.978Z,15.37
2017-09-10T21:36:33.371Z,15.36
2017-09-10T21:39:00.899Z,15.39
2017-09-10T21:41:28.282Z,15.38
2017-09-10T21:43:55.673Z,15.40
2017-09-10T21:46:23.091Z,15.40
2017-09-10T21:48:56.275Z,15.44
2017-09-10T21:51:23.825Z,15.38
2017-09-10T21:53:51.239Z,15.39
2017-09-10T21:56:18.618Z,15.41
2017-09-10T21:58:46.010Z,15.42
2017-09-10T22:01:13.403Z,15.39
2017-09-10T22:03:40.819Z,15.40
2017-09-10T22:06:08.203Z,15.39
2017-09-10T22:08:35.586Z,15.42
2017-09-10T22:11:02.979Z,15.43
2017-09-10T22:13:30.358Z,15.45
2017-09-10T22:15:57.890Z,15.52
2017-09-10T22:18:25.287Z,15.54
2017-09-10T22:20:52.679Z,15.50
2017-09-10T22:23:20.071Z,15.53
2017-09-10T22:25:47.456Z,15.52
2017-09-10T22:28:14.950Z,15.56
2017-09-10T22:30:42.342Z,15.61
2017-09-10T22:33:09.722Z,15.63
2017-09-10T22:35:37.110Z,15.63
2017-09-10T22:38:04.498Z,15.68
2017-09-10T22:40:31.994Z,15.64
2017-09-10T22:42:59.391Z,15.62
2017-09-10T22:45:26.780Z,15.54
2017-09-10T22:47:54.175Z,15.56
2017-09-10T22:50:21.560Z,15.57
2017-09-10T22:52:48.955Z,15.51
2017-09-10T22:55:16.338Z,15.54
2017-09-10T22:57:43.723Z,15.57
2017-09-10T23:00:11.116Z,15.65
2017-09-10T23:02:38.509Z,15.58
2017-09-10T23:05:06.038Z,15.49
2017-09-10T23:07:33.424Z,15.42
2017-09-10T23:10:00.805Z,15.36
2017-09-10T23:12:28.199Z,15.27
2017-09-10T23:14:55.585Z,15.19
2017-09-10T23:17:23.129Z,15.16
2017-09-10T23:19:50.519Z,15.09
2017-09-10T23:22:17.907Z,15.03
2017-09-10T23:24:45.298Z,14.99
2017-09-10T23:27:12.694Z,14.90
2017-09-10T23:29:40.465Z,14.86
2017-09-10T23:32:07.862Z,14.79
2017-09-10T23:34:35.250Z,14.84
2017-09-10T23:37:02.667Z,14.85
2017-09-10T23:39:30.047Z,14.79
2017-09-10T23:41:57.606Z,14.84
2017-09-10T23:44:24.990Z,14.83
2017-09-10T23:46:52.382Z,14.81
2017-09-10T23:49:19.771Z,14.84
2017-09-10T23:51:47.162Z,14.83
2017-09-10T23:54:14.567Z,14.91
2017-09-10T23:56:41.960Z,14.90
2017-09-10T23:59:09.351Z,14.88
